Airfield :
LOGIN :

Register | Disclaimer

   EN    FR    IT 

 










Legend :    VFR   Marginal VFR   IFR   Intensive IFR   Very Intensive IFR
Visi :
Ceiling :
>= 8 km
>= 3000ft
5 to 8 km
1000 to 3000 ft
1500m to 5 km
500 to 1000 ft
800 to 1500m
200 to 500 ft
< 800m
< 200 ft
Symbols :   Thunderstorms  Fog  Heavy snow  Heavy precipitations  Wind > 20 kt
SIGMETs :     Misc.  Thunderstorms  Icing  Turbulence  Mountain Waves  Volcanic Ashes






- Airport Elevation : 302 ft
- IATA code : CGN


EDDK - Cologne Bonn

CURRENT METAR :
  • 270420Z 21006KT 9999 FEW020 SCT042 03/01 Q1006 NOSIG

EXPIRED METARs :
  • 270350Z 23006KT 200V270 9999 BKN038 03/01 Q1006 NOSIG
  • 270320Z 22008KT 200V270 9999 SCT017 BKN030 03/01 Q1006 NOSIG
  • 270250Z 22006KT 190V250 9999 BKN018 03/01 Q1006 NOSIG
  • 270220Z 20008KT 9999 BKN022 03/01 Q1006 NOSIG
  • 270150Z 19006KT 9999 BKN024 03/01 Q1007 NOSIG

TAF TAF EDDK
Valid from the 27 at 00:00 until the 28 at 06:00 UTC


262300Z 2700/2806 25007KT 9999 BKN020
PROB40
TEMPO 2700/2703 3000 SHSNRA BKN010CB
BECMG 2704/2707 15005KT
BECMG 2708/2711 12010KT
BECMG 2711/2714 BKN012
TEMPO 2711/2718 4500 RA BKN008
BECMG 2715/2718 30009KT
TEMPO 2718/2801 3000 SNRA BKN005
PROB30
TEMPO 2718/2801 1400 SN
BECMG 2803/2806 SCT012



MET'MAP, your aeronautical weather chart ! - Copyright ORBIFLY December 2007 - Disclaimer

ORBIFLY MET'MAP TEAM :

Programming & Development : Alexandra Zaïnal
Concept & original design : Baudouin d'Aumeries
Assistance for programming : Marc-Olivier Méhu
Technical & hardware support : Manuel Goepfert

Contact : metmap@orbifly.com




SOURCES & CREDITS :

   NOAA